Time,TemperatureF,DewpointF,PressureIn,WindDirection,WindDirectionDegrees,WindSpeedMPH,WindSpeedGustMPH,Humidity,HourlyPrecipIn,Conditions,Clouds,dailyrainin,SoftwareType,DateUTC
2013-01-17 00:00:00,36.7,36.0,29.94,SW,219,4.0,8.0,97,0.00,,,0.00,meteohub,2013-01-17 05:00:00,
2013-01-17 00:01:00,36.7,36.0,29.94,SSW,200,2.0,8.0,97,0.00,,,0.00,meteohub,2013-01-17 05:01:00,
2013-01-17 00:03:00,36.7,36.0,29.94,West,260,1.0,8.0,97,0.00,,,0.00,meteohub,2013-01-17 05:03:00,
2013-01-17 00:08:00,36.7,36.0,29.94,SW,216,6.0,8.0,97,0.00,,,0.00,meteohub,2013-01-17 05:08:00,
2013-01-17 00:13:00,36.7,36.0,29.94,WSW,252,2.0,9.0,97,0.00,,,0.00,meteohub,2013-01-17 05:13:00,
2013-01-17 00:18:00,36.7,36.0,29.94,WSW,240,1.0,9.0,97,0.00,,,0.00,meteohub,2013-01-17 05:18:00,
2013-01-17 00:23:00,36.7,36.0,29.94,West,273,1.0,9.0,97,0.00,,,0.00,meteohub,2013-01-17 05:23:00,
2013-01-17 00:28:00,36.9,36.3,29.94,West,276,4.0,6.0,98,0.00,,,0.00,meteohub,2013-01-17 05:28:00,
2013-01-17 00:33:00,36.9,36.3,29.94,West,270,5.0,7.0,98,0.00,,,0.00,meteohub,2013-01-17 05:33:00,
2013-01-17 00:38:00,37.0,36.5,29.95,West,264,2.0,7.0,98,0.00,,,0.00,meteohub,2013-01-17 05:38:00,
2013-01-17 00:43:00,37.0,36.5,29.96,West,277,3.0,5.0,98,0.00,,,0.00,meteohub,2013-01-17 05:43:00,
2013-01-17 00:48:00,37.2,36.7,29.95,West,278,4.0,6.0,98,0.00,,,0.00,meteohub,2013-01-17 05:48:00,
2013-01-17 00:53:00,37.2,36.7,29.96,West,267,1.0,6.0,98,0.00,,,0.00,meteohub,2013-01-17 05:53:00,
2013-01-17 00:58:00,37.2,36.7,29.94,West,270,2.0,6.0,98,0.00,,,0.00,meteohub,2013-01-17 05:58:00,
2013-01-17 01:03:00,37.2,36.7,29.94,West,276,3.0,6.0,98,0.00,,,0.00,meteohub,2013-01-17 06:03:00,
2013-01-17 01:08:00,37.4,36.9,29.96,WSW,255,4.0,10.0,98,0.00,,,0.00,meteohub,2013-01-17 06:08:00,
2013-01-17 01:13:00,37.4,36.7,29.95,WNW,285,3.0,10.0,97,0.00,,,0.00,meteohub,2013-01-17 06:13:00,
2013-01-17 01:18:00,37.6,36.9,29.96,West,262,3.0,10.0,97,0.00,,,0.00,meteohub,2013-01-17 06:18:00,
2013-01-17 01:23:00,37.6,36.9,29.95,West,269,3.0,6.0,97,0.00,,,0.00,meteohub,2013-01-17 06:23:00,
2013-01-17 01:28:00,37.6,36.9,29.94,WSW,257,2.0,6.0,97,0.00,,,0.00,meteohub,2013-01-17 06:28:00,
2013-01-17 01:33:00,37.2,36.5,29.94,SW,233,1.0,7.0,97,0.00,,,0.00,meteohub,2013-01-17 06:33:00,
2013-01-17 01:38:00,37.0,36.3,29.94,WSW,238,1.0,7.0,97,0.00,,,0.00,meteohub,2013-01-17 06:38:00,
2013-01-17 01:43:00,36.9,36.1,29.94,WSW,238,1.0,6.0,97,0.00,,,0.00,meteohub,2013-01-17 06:43:00,
2013-01-17 01:48:00,36.9,36.1,29.94,SW,219,0.0,6.0,97,0.00,,,0.00,meteohub,2013-01-17 06:48:00,
2013-01-17 01:53:00,36.7,36.0,29.94,WSW,242,2.0,6.0,97,0.00,,,0.00,meteohub,2013-01-17 06:53:00,
2013-01-17 01:58:00,36.7,36.0,29.95,West,265,0.0,7.0,97,0.00,,,0.00,meteohub,2013-01-17 06:58:00,
2013-01-17 02:03:00,36.7,36.0,29.95,SW,219,3.0,7.0,97,0.00,,,0.00,meteohub,2013-01-17 07:03:00,
2013-01-17 02:08:00,36.7,36.0,29.96,West,281,2.0,6.0,97,0.00,,,0.00,meteohub,2013-01-17 07:08:00,
2013-01-17 02:13:00,36.7,36.0,29.96,WSW,250,7.0,7.0,97,0.00,,,0.00,meteohub,2013-01-17 07:13:00,
2013-01-17 02:18:00,36.9,36.1,29.95,WSW,237,2.0,7.0,97,0.00,,,0.00,meteohub,2013-01-17 07:18:00,
2013-01-17 02:23:00,36.7,36.0,29.94,WSW,249,1.0,8.0,97,0.00,,,0.00,meteohub,2013-01-17 07:23:00,
2013-01-17 02:28:00,35.6,35.6,29.96,WSW,240,2.0,8.0,100,0.00,,,0.00,meteohub,2013-01-17 07:28:00,
2013-01-17 02:33:00,35.6,35.6,29.96,WSW,240,2.0,8.0,100,0.00,,,0.00,meteohub,2013-01-17 07:33:00,
2013-01-17 02:38:00,35.6,35.6,29.96,North,-999,-999.0,6.0,100,0.00,,,0.00,meteohub,2013-01-17 07:38:00,
2013-01-17 07:38:00,39.6,34.0,30.02,North,-999,-999.0,-999.0,80,-99.99,,,0.00,meteohub,2013-01-17 12:38:00,
2013-01-17 07:43:00,39.6,33.6,30.02,North,-999,-999.0,-999.0,79,-99.99,,,0.00,meteohub,2013-01-17 12:43:00,
2013-01-17 07:48:00,39.6,33.6,30.02,NW,320,6.0,-999.0,79,0.00,,,0.00,meteohub,2013-01-17 12:48:00,
2013-01-17 07:53:00,39.6,33.3,30.03,WNW,295,6.0,15.0,78,0.00,,,0.00,meteohub,2013-01-17 12:53:00,
2013-01-17 07:58:00,39.4,33.4,30.04,WNW,293,6.0,15.0,79,0.00,,,0.00,meteohub,2013-01-17 12:58:00,
2013-01-17 08:04:00,39.4,33.4,30.04,NW,306,6.0,15.0,79,0.00,,,0.00,meteohub,2013-01-17 13:04:00,
2013-01-17 08:09:00,39.4,33.8,30.04,WNW,293,5.0,13.0,80,0.00,,,0.00,meteohub,2013-01-17 13:09:00,
2013-01-17 08:14:00,39.6,33.3,30.04,WNW,296,8.0,13.0,78,0.00,,,0.00,meteohub,2013-01-17 13:14:00,
2013-01-17 08:19:00,39.6,33.6,30.04,WNW,287,6.0,12.0,79,0.00,,,0.00,meteohub,2013-01-17 13:19:00,
2013-01-17 08:24:00,39.4,33.4,30.04,West,277,7.0,12.0,79,0.00,,,0.00,meteohub,2013-01-17 13:24:00,
2013-01-17 08:29:00,39.4,33.8,30.05,WNW,291,6.0,12.0,80,0.00,,,0.00,meteohub,2013-01-17 13:29:00,
2013-01-17 08:34:00,39.4,33.4,30.06,WNW,290,7.0,12.0,79,0.00,,,0.00,meteohub,2013-01-17 13:34:00,
2013-01-17 08:39:00,39.6,34.0,30.06,WNW,300,11.0,15.0,80,0.00,,,0.00,meteohub,2013-01-17 13:39:00,
2013-01-17 08:44:00,39.4,33.4,30.07,WNW,298,7.0,15.0,79,0.00,,,0.00,meteohub,2013-01-17 13:44:00,
2013-01-17 08:49:00,39.2,32.9,30.07,WNW,283,5.0,12.0,78,0.00,,,0.00,meteohub,2013-01-17 13:49:00,
2013-01-17 08:54:00,39.2,33.3,30.07,WNW,302,4.0,12.0,79,0.00,,,0.00,meteohub,2013-01-17 13:54:00,
2013-01-17 08:59:00,39.2,32.9,30.06,NW,321,3.0,11.0,78,0.00,,,0.00,meteohub,2013-01-17 13:59:00,
2013-01-17 09:04:00,39.4,33.4,30.06,NW,314,5.0,9.0,79,0.00,,,0.00,meteohub,2013-01-17 14:04:00,
2013-01-17 09:09:00,39.2,32.9,30.06,NW,313,5.0,9.0,78,0.00,,,0.00,meteohub,2013-01-17 14:09:00,
2013-01-17 09:14:00,39.4,33.8,30.07,WNW,288,3.0,9.0,80,0.00,,,0.00,meteohub,2013-01-17 14:14:00,
2013-01-17 09:19:00,39.4,33.1,30.08,NW,311,5.0,9.0,78,0.00,,,0.00,meteohub,2013-01-17 14:19:00,
2013-01-17 09:24:00,39.2,33.3,30.07,WNW,287,2.0,9.0,79,0.00,,,0.00,meteohub,2013-01-17 14:24:00,
2013-01-17 09:29:00,39.2,33.3,30.07,NNW,330,4.0,9.0,79,0.00,,,0.00,meteohub,2013-01-17 14:29:00,
2013-01-17 09:34:00,39.4,33.1,30.08,WNW,297,4.0,8.0,78,0.00,,,0.00,meteohub,2013-01-17 14:34:00,
2013-01-17 09:39:00,39.4,33.4,30.09,WNW,288,2.0,8.0,79,0.00,,,0.00,meteohub,2013-01-17 14:39:00,
2013-01-17 09:44:00,39.4,33.4,30.09,WNW,284,4.0,7.0,79,0.00,,,0.00,meteohub,2013-01-17 14:44:00,
2013-01-17 09:49:00,39.2,32.9,30.09,WNW,284,4.0,7.0,78,0.00,,,0.00,meteohub,2013-01-17 14:49:00,
2013-01-17 09:54:00,39.2,32.9,30.08,West,278,3.0,7.0,78,0.00,,,0.00,meteohub,2013-01-17 14:54:00,
2013-01-17 09:59:00,39.4,33.1,30.07,WNW,302,6.0,6.0,78,0.00,,,0.00,meteohub,2013-01-17 14:59:00,
2013-01-17 10:04:00,39.4,32.7,30.08,WNW,297,3.0,7.0,77,0.00,,,0.00,meteohub,2013-01-17 15:04:00,
2013-01-17 10:09:00,39.4,32.7,30.08,WNW,288,3.0,7.0,77,0.00,,,0.00,meteohub,2013-01-17 15:09:00,
2013-01-17 10:14:00,39.4,33.4,30.08,WNW,290,3.0,7.0,79,0.00,,,0.00,meteohub,2013-01-17 15:14:00,
2013-01-17 10:19:00,39.4,33.1,30.08,WNW,290,4.0,8.0,78,0.00,,,0.00,meteohub,2013-01-17 15:19:00,
2013-01-17 10:24:00,39.6,33.3,30.08,WNW,284,3.0,8.0,78,0.00,,,0.00,meteohub,2013-01-17 15:24:00,
2013-01-17 10:29:00,39.6,33.3,30.09,West,281,4.0,7.0,78,0.00,,,0.00,meteohub,2013-01-17 15:29:00,
2013-01-17 10:34:00,39.7,33.1,30.08,West,269,3.0,7.0,77,0.00,,,0.00,meteohub,2013-01-17 15:34:00,
2013-01-17 10:39:00,39.9,33.3,30.08,WNW,293,2.0,7.0,77,0.00,,,0.00,meteohub,2013-01-17 15:39:00,
2013-01-17 10:44:00,40.3,33.6,30.07,WNW,285,3.0,7.0,77,0.00,,,0.00,meteohub,2013-01-17 15:44:00,
2013-01-17 10:49:00,40.1,33.4,30.06,West,277,4.0,7.0,77,0.00,,,0.00,meteohub,2013-01-17 15:49:00,
2013-01-17 10:54:00,39.9,33.6,30.06,WNW,290,4.0,7.0,78,0.00,,,0.00,meteohub,2013-01-17 15:54:00,
2013-01-17 10:59:00,39.9,33.6,30.06,NW,306,3.0,8.0,78,0.00,,,0.00,meteohub,2013-01-17 15:59:00,
2013-01-17 11:04:00,39.9,34.0,30.07,WNW,295,4.0,8.0,79,0.00,,,0.00,meteohub,2013-01-17 16:04:00,
2013-01-17 11:09:00,40.1,33.8,30.08,West,263,3.0,7.0,78,0.00,,,0.00,meteohub,2013-01-17 16:09:00,
2013-01-17 11:14:00,40.3,34.0,30.07,WNW,299,4.0,7.0,78,0.00,,,0.00,meteohub,2013-01-17 16:14:00,
2013-01-17 11:19:00,40.3,34.0,30.07,WNW,291,8.0,8.0,78,0.00,,,0.00,meteohub,2013-01-17 16:19:00,
2013-01-17 11:24:00,40.1,33.8,30.07,WNW,295,3.0,9.0,78,0.00,,,0.00,meteohub,2013-01-17 16:24:00,
2013-01-17 11:29:00,40.3,33.6,30.07,WNW,300,5.0,9.0,77,0.00,,,0.00,meteohub,2013-01-17 16:29:00,
2013-01-17 11:34:00,40.3,33.3,30.07,NW,311,5.0,9.0,76,0.00,,,0.00,meteohub,2013-01-17 16:34:00,
2013-01-17 11:39:00,40.3,34.0,30.06,NW,316,6.0,9.0,78,0.00,,,0.00,meteohub,2013-01-17 16:39:00,
2013-01-17 11:44:00,40.5,34.2,30.06,NW,306,6.0,12.0,78,0.00,,,0.00,meteohub,2013-01-17 16:44:00,
2013-01-17 11:49:00,40.3,33.6,30.06,WNW,298,4.0,12.0,77,0.00,,,0.00,meteohub,2013-01-17 16:49:00,
2013-01-17 11:54:00,40.1,33.4,30.07,WNW,302,6.0,10.0,77,0.00,,,0.00,meteohub,2013-01-17 16:54:00,
2013-01-17 11:59:00,39.9,33.3,30.07,NW,325,5.0,10.0,77,0.00,,,0.00,meteohub,2013-01-17 16:59:00,
2013-01-17 12:04:00,39.9,32.9,30.07,WNW,302,7.0,10.0,76,0.00,,,0.00,meteohub,2013-01-17 17:04:00,
2013-01-17 12:09:00,39.9,33.3,30.07,NW,312,5.0,10.0,77,0.00,,,0.00,meteohub,2013-01-17 17:09:00,
2013-01-17 12:14:00,39.9,33.3,30.08,NW,304,4.0,10.0,77,0.00,,,0.00,meteohub,2013-01-17 17:14:00,
2013-01-17 12:19:00,40.5,33.8,30.08,West,270,3.0,9.0,77,0.00,,,0.00,meteohub,2013-01-17 17:19:00,
2013-01-17 12:24:00,40.8,34.2,30.07,WNW,283,3.0,7.0,77,0.00,,,0.00,meteohub,2013-01-17 17:24:00,
2013-01-17 12:30:00,40.8,33.8,30.06,WNW,287,3.0,6.0,76,0.00,,,0.00,meteohub,2013-01-17 17:30:00,
2013-01-17 12:35:00,40.8,33.4,30.07,West,281,3.0,5.0,75,0.00,,,0.00,meteohub,2013-01-17 17:35:00,
2013-01-17 12:40:00,40.6,33.6,30.08,WNW,284,4.0,5.0,76,0.00,,,0.00,meteohub,2013-01-17 17:40:00,
2013-01-17 12:45:00,40.6,34.3,30.08,West,279,4.0,5.0,78,0.00,,,0.00,meteohub,2013-01-17 17:45:00,
2013-01-17 12:50:00,40.8,33.8,30.08,West,273,5.0,6.0,76,0.00,,,0.00,meteohub,2013-01-17 17:50:00,
2013-01-17 12:55:00,41.2,33.8,30.07,WNW,299,4.0,6.0,75,0.00,,,0.00,meteohub,2013-01-17 17:55:00,
2013-01-17 13:00:00,41.2,33.8,30.07,WNW,285,2.0,6.0,75,0.00,,,0.00,meteohub,2013-01-17 18:00:00,
2013-01-17 13:05:00,41.2,33.8,30.07,WNW,300,3.0,6.0,75,0.00,,,0.00,meteohub,2013-01-17 18:05:00,
2013-01-17 13:10:00,41.4,34.3,30.07,WNW,284,3.0,6.0,76,0.00,,,0.00,meteohub,2013-01-17 18:10:00,
2013-01-17 13:15:00,41.5,34.2,30.08,West,273,4.0,5.0,75,0.00,,,0.00,meteohub,2013-01-17 18:15:00,
2013-01-17 13:20:00,41.5,33.8,30.07,West,279,4.0,5.0,74,0.00,,,0.00,meteohub,2013-01-17 18:20:00,
2013-01-17 13:25:00,41.4,33.4,30.07,WNW,285,4.0,5.0,73,0.00,,,0.00,meteohub,2013-01-17 18:25:00,
2013-01-17 13:30:00,41.2,33.4,30.07,WNW,284,3.0,5.0,74,0.00,,,0.00,meteohub,2013-01-17 18:30:00,
2013-01-17 13:35:00,41.2,33.8,30.07,West,270,3.0,5.0,75,0.00,,,0.00,meteohub,2013-01-17 18:35:00,
2013-01-17 13:40:00,40.8,33.4,30.08,West,276,2.0,5.0,75,0.00,,,0.00,meteohub,2013-01-17 18:40:00,
2013-01-17 13:45:00,40.8,33.4,30.07,West,281,3.0,5.0,75,0.00,,,0.00,meteohub,2013-01-17 18:45:00,
2013-01-17 13:50:00,40.8,33.8,30.07,WNW,289,2.0,5.0,76,0.00,,,0.00,meteohub,2013-01-17 18:50:00,
2013-01-17 13:55:00,41.2,33.8,30.07,WSW,250,2.0,5.0,75,0.00,,,0.00,meteohub,2013-01-17 18:55:00,
2013-01-17 14:00:00,41.2,33.8,30.07,WNW,283,2.0,5.0,75,0.00,,,0.00,meteohub,2013-01-17 19:00:00,
2013-01-17 14:05:00,41.2,33.8,30.07,West,266,2.0,5.0,75,0.00,,,0.00,meteohub,2013-01-17 19:05:00,
2013-01-17 14:10:00,41.2,33.4,30.08,West,275,2.0,5.0,74,0.00,,,0.00,meteohub,2013-01-17 19:10:00,
2013-01-17 14:15:00,41.2,33.8,30.07,West,276,3.0,5.0,75,0.00,,,0.00,meteohub,2013-01-17 19:15:00,
2013-01-17 14:20:00,41.2,34.2,30.07,West,281,3.0,6.0,76,0.00,,,0.00,meteohub,2013-01-17 19:20:00,
2013-01-17 14:25:00,41.2,34.2,30.06,WNW,283,2.0,6.0,76,0.00,,,0.00,meteohub,2013-01-17 19:25:00,
2013-01-17 14:30:00,41.4,34.3,30.07,West,280,3.0,6.0,76,0.00,,,0.00,meteohub,2013-01-17 19:30:00,
2013-01-17 14:35:00,41.7,34.7,30.07,West,281,2.0,4.0,76,0.00,,,0.00,meteohub,2013-01-17 19:35:00,
2013-01-17 14:40:00,41.5,34.2,30.07,West,277,3.0,4.0,75,0.00,,,0.00,meteohub,2013-01-17 19:40:00,
2013-01-17 14:45:00,41.5,34.2,30.07,West,274,3.0,4.0,75,0.00,,,0.00,meteohub,2013-01-17 19:45:00,
2013-01-17 14:50:00,41.5,34.5,30.07,WNW,284,2.0,4.0,76,0.00,,,0.00,meteohub,2013-01-17 19:50:00,
2013-01-17 14:55:00,41.7,35.1,30.07,West,280,2.0,4.0,77,0.00,,,0.00,meteohub,2013-01-17 19:55:00,
2013-01-17 15:00:00,41.7,35.1,30.07,WNW,291,3.0,4.0,77,0.00,,,0.00,meteohub,2013-01-17 20:00:00,
2013-01-17 15:05:00,41.5,34.9,30.07,WNW,286,2.0,5.0,77,0.00,,,0.00,meteohub,2013-01-17 20:05:00,
2013-01-17 15:10:00,41.5,34.9,30.06,WNW,284,2.0,5.0,77,0.00,,,0.00,meteohub,2013-01-17 20:10:00,
2013-01-17 15:15:00,41.4,35.1,30.07,West,280,2.0,4.0,78,0.00,,,0.00,meteohub,2013-01-17 20:15:00,
2013-01-17 15:20:00,41.4,35.1,30.07,WNW,284,2.0,3.0,78,0.00,,,0.00,meteohub,2013-01-17 20:20:00,
2013-01-17 15:25:00,41.2,35.2,30.08,West,269,2.0,3.0,79,0.00,,,0.00,meteohub,2013-01-17 20:25:00,
2013-01-17 15:30:00,41.2,35.4,30.08,West,280,3.0,3.0,80,0.00,,,0.00,meteohub,2013-01-17 20:30:00,
2013-01-17 15:35:00,41.0,35.2,30.09,West,281,1.0,3.0,80,0.00,,,0.00,meteohub,2013-01-17 20:35:00,
2013-01-17 15:40:00,41.2,35.8,30.08,WNW,284,1.0,4.0,81,0.00,,,0.00,meteohub,2013-01-17 20:40:00,
2013-01-17 15:45:00,41.0,35.2,30.08,WNW,286,1.0,5.0,80,0.00,,,0.00,meteohub,2013-01-17 20:45:00,
2013-01-17 15:50:00,41.2,35.4,30.09,WNW,293,2.0,5.0,80,0.00,,,0.00,meteohub,2013-01-17 20:50:00,
2013-01-17 15:55:00,41.2,35.4,30.08,NW,326,10.0,10.0,80,0.00,,,0.00,meteohub,2013-01-17 20:55:00,
2013-01-17 16:00:00,41.4,34.3,30.08,NNW,334,11.0,12.0,76,0.00,,,0.00,meteohub,2013-01-17 21:00:00,
2013-01-17 16:05:00,41.5,33.8,30.09,NW,317,4.0,12.0,74,0.00,,,0.00,meteohub,2013-01-17 21:05:00,
2013-01-17 16:10:00,41.5,33.6,30.10,NNW,328,4.0,12.0,73,0.00,,,0.00,meteohub,2013-01-17 21:10:00,
2013-01-17 16:15:00,41.5,33.8,30.09,NNW,332,5.0,12.0,74,0.00,,,0.00,meteohub,2013-01-17 21:15:00,
2013-01-17 16:20:00,41.5,34.2,30.09,NNW,327,6.0,11.0,75,0.00,,,0.00,meteohub,2013-01-17 21:20:00,
2013-01-17 16:25:00,41.4,34.0,30.09,North,354,5.0,11.0,75,0.00,,,0.00,meteohub,2013-01-17 21:25:00,
2013-01-17 16:30:00,41.4,34.0,30.09,NNW,339,3.0,10.0,75,0.00,,,0.00,meteohub,2013-01-17 21:30:00,
2013-01-17 16:35:00,41.4,34.0,30.10,North,352,7.0,8.0,75,0.00,,,0.00,meteohub,2013-01-17 21:35:00,
2013-01-17 16:40:00,41.4,34.0,30.10,NNW,339,5.0,8.0,75,0.00,,,0.00,meteohub,2013-01-17 21:40:00,
2013-01-17 16:45:00,41.4,34.0,30.10,NNW,330,4.0,8.0,75,0.00,,,0.00,meteohub,2013-01-17 21:45:00,
2013-01-17 16:50:00,41.2,34.2,30.09,NNW,347,6.0,7.0,76,0.00,,,0.00,meteohub,2013-01-17 21:50:00,
2013-01-17 16:55:00,41.2,34.2,30.09,NNW,342,6.0,8.0,76,0.00,,,0.00,meteohub,2013-01-17 21:55:00,
2013-01-17 17:00:00,41.2,34.2,30.09,NNW,342,5.0,8.0,76,0.00,,,0.00,meteohub,2013-01-17 22:00:00,
2013-01-17 17:05:00,41.2,34.2,30.10,NNW,338,8.0,8.0,76,0.00,,,0.00,meteohub,2013-01-17 22:05:00,
2013-01-17 17:10:00,41.2,33.4,30.11,NNW,339,4.0,8.0,74,0.00,,,0.00,meteohub,2013-01-17 22:10:00,
2013-01-17 17:15:00,41.2,34.5,30.10,NNW,329,4.0,8.0,77,0.00,,,0.00,meteohub,2013-01-17 22:15:00,
2013-01-17 17:20:00,41.2,34.2,30.10,NNW,330,4.0,8.0,76,0.00,,,0.00,meteohub,2013-01-17 22:20:00,
2013-01-17 17:26:00,41.2,34.2,30.11,North,355,3.0,6.0,76,0.00,,,0.00,meteohub,2013-01-17 22:26:00,
2013-01-17 17:31:00,41.2,34.5,30.11,NW,325,2.0,6.0,77,0.00,,,0.00,meteohub,2013-01-17 22:31:00,
2013-01-17 17:36:00,41.2,34.5,30.12,NW,309,1.0,6.0,77,0.00,,,0.00,meteohub,2013-01-17 22:36:00,
2013-01-17 17:41:00,41.0,34.3,30.11,NNW,329,2.0,5.0,77,0.00,,,0.00,meteohub,2013-01-17 22:41:00,
2013-01-17 17:46:00,41.0,34.7,30.10,NW,318,2.0,5.0,78,0.00,,,0.00,meteohub,2013-01-17 22:46:00,
2013-01-17 17:51:00,41.0,34.7,30.11,NW,305,2.0,5.0,78,0.00,,,0.00,meteohub,2013-01-17 22:51:00,
2013-01-17 17:56:00,41.2,35.2,30.11,NW,319,2.0,5.0,79,0.00,,,0.00,meteohub,2013-01-17 22:56:00,
2013-01-17 18:01:00,41.2,35.2,30.12,North,6,3.0,3.0,79,0.00,,,0.00,meteohub,2013-01-17 23:01:00,
2013-01-17 18:06:00,41.2,34.9,30.12,NW,325,2.0,3.0,78,0.00,,,0.00,meteohub,2013-01-17 23:06:00,
2013-01-17 18:11:00,41.0,35.1,30.11,NW,313,3.0,4.0,79,0.00,,,0.00,meteohub,2013-01-17 23:11:00,
2013-01-17 18:16:00,41.0,35.1,30.11,NNW,328,4.0,7.0,79,0.00,,,0.00,meteohub,2013-01-17 23:16:00,
2013-01-17 18:21:00,40.8,34.2,30.10,NNW,327,3.0,7.0,77,0.00,,,0.00,meteohub,2013-01-17 23:21:00,
2013-01-17 18:26:00,40.8,34.2,30.11,NNW,329,2.0,7.0,77,0.00,,,0.00,meteohub,2013-01-17 23:26:00,
2013-01-17 18:31:00,40.8,34.2,30.11,NW,321,4.0,7.0,77,0.00,,,0.00,meteohub,2013-01-17 23:31:00,
2013-01-17 18:36:00,40.8,34.2,30.11,NNE,13,3.0,6.0,77,0.00,,,0.00,meteohub,2013-01-17 23:36:00,
2013-01-17 18:41:00,40.8,34.2,30.12,NW,323,2.0,6.0,77,0.00,,,0.00,meteohub,2013-01-17 23:41:00,
2013-01-17 18:46:00,41.2,34.9,30.12,NNW,332,2.0,6.0,78,0.00,,,0.00,meteohub,2013-01-17 23:46:00,
2013-01-17 18:51:00,41.0,35.1,30.12,NNW,328,3.0,6.0,79,0.00,,,0.00,meteohub,2013-01-17 23:51:00,
2013-01-17 18:56:00,40.8,34.2,30.12,NW,307,3.0,6.0,77,0.00,,,0.00,meteohub,2013-01-17 23:56:00,
2013-01-17 19:01:00,40.8,34.5,30.12,NW,325,3.0,7.0,78,0.00,,,0.00,meteohub,2013-01-18 00:01:00,
2013-01-17 19:06:00,40.8,34.5,30.11,NNW,342,3.0,7.0,78,0.00,,,0.00,meteohub,2013-01-18 00:06:00,
2013-01-17 19:11:00,40.8,34.5,30.11,NNW,346,4.0,7.0,78,0.00,,,0.00,meteohub,2013-01-18 00:11:00,
2013-01-17 19:16:00,40.8,34.2,30.12,NNW,341,5.0,6.0,77,0.00,,,0.00,meteohub,2013-01-18 00:16:00,
2013-01-17 19:21:00,40.8,33.8,30.13,NW,320,2.0,6.0,76,0.00,,,0.00,meteohub,2013-01-18 00:21:00,
2013-01-17 19:26:00,40.8,34.2,30.12,NNW,338,4.0,6.0,77,0.00,,,0.00,meteohub,2013-01-18 00:26:00,
2013-01-17 19:31:00,40.8,33.8,30.11,NNW,344,8.0,8.0,76,0.00,,,0.00,meteohub,2013-01-18 00:31:00,
2013-01-17 19:36:00,40.5,33.1,30.10,NE,39,10.0,10.0,75,0.00,,,0.00,meteohub,2013-01-18 00:36:00,
2013-01-17 19:41:00,40.1,33.1,30.10,NE,37,10.0,14.0,76,0.00,,,0.00,meteohub,2013-01-18 00:41:00,
2013-01-17 19:46:00,39.9,32.9,30.11,NNE,22,8.0,14.0,76,0.00,,,0.00,meteohub,2013-01-18 00:46:00,
2013-01-17 19:51:00,39.9,32.4,30.10,NNE,23,10.0,15.0,74,0.00,,,0.00,meteohub,2013-01-18 00:51:00,
2013-01-17 19:56:00,39.7,32.7,30.11,North,353,9.0,15.0,76,0.00,,,0.00,meteohub,2013-01-18 00:56:00,
2013-01-17 20:01:00,39.7,32.7,30.10,NNE,18,11.0,15.0,76,0.00,,,0.00,meteohub,2013-01-18 01:01:00,
2013-01-17 20:06:00,39.6,32.4,30.11,NNE,15,13.0,15.0,75,0.00,,,0.00,meteohub,2013-01-18 01:06:00,
2013-01-17 20:11:00,39.6,32.5,30.11,NNE,27,11.0,15.0,76,0.00,,,0.00,meteohub,2013-01-18 01:11:00,
2013-01-17 20:16:00,39.2,32.4,30.11,North,0,12.0,15.0,76,0.00,,,0.00,meteohub,2013-01-18 01:16:00,
2013-01-17 20:21:00,39.0,32.4,30.11,NNE,20,10.0,16.0,77,0.00,,,0.00,meteohub,2013-01-18 01:21:00,
2013-01-17 20:26:00,39.0,32.4,30.12,North,354,9.0,16.0,77,0.00,,,0.00,meteohub,2013-01-18 01:26:00,
2013-01-17 20:31:00,38.8,32.0,30.12,NNE,19,12.0,16.0,76,0.00,,,0.00,meteohub,2013-01-18 01:31:00,
2013-01-17 20:36:00,38.5,31.6,30.12,North,3,13.0,16.0,76,0.00,,,0.00,meteohub,2013-01-18 01:36:00,
2013-01-17 20:41:00,38.1,30.2,30.11,NE,43,12.0,17.0,73,0.00,,,0.00,meteohub,2013-01-18 01:41:00,
2013-01-17 20:46:00,37.9,30.0,30.12,North,353,13.0,17.0,73,0.00,,,0.00,meteohub,2013-01-18 01:46:00,
2013-01-17 20:51:00,37.9,30.4,30.13,NNE,23,13.0,18.0,74,0.00,,,0.00,meteohub,2013-01-18 01:51:00,
2013-01-17 20:56:00,37.6,29.1,30.12,North,359,18.0,20.0,71,0.00,,,0.00,meteohub,2013-01-18 01:56:00,
2013-01-17 21:01:00,37.2,29.1,30.11,North,349,12.0,21.0,72,0.00,,,0.00,meteohub,2013-01-18 02:01:00,
2013-01-17 21:06:00,37.0,28.2,30.10,NE,34,13.0,21.0,70,0.00,,,0.00,meteohub,2013-01-18 02:06:00,
2013-01-17 21:11:00,36.9,28.4,30.10,North,355,12.0,21.0,71,0.00,,,0.00,meteohub,2013-01-18 02:11:00,
2013-01-17 21:16:00,36.9,28.8,30.09,ENE,60,15.0,18.0,72,0.00,,,0.00,meteohub,2013-01-18 02:16:00,
2013-01-17 21:22:00,36.5,27.7,30.10,North,0,12.0,18.0,70,0.00,,,0.00,meteohub,2013-01-18 02:22:00,
2013-01-17 21:27:00,36.5,28.0,30.09,NNE,22,8.0,18.0,71,0.00,,,0.00,meteohub,2013-01-18 02:27:00,
2013-01-17 21:32:00,36.3,27.9,30.09,NNE,26,12.0,18.0,71,0.00,,,0.00,meteohub,2013-01-18 02:32:00,
2013-01-17 21:37:00,36.3,27.5,30.10,NNW,333,12.0,17.0,70,0.00,,,0.00,meteohub,2013-01-18 02:37:00,
2013-01-17 21:42:00,36.3,27.1,30.11,North,0,12.0,16.0,69,0.00,,,0.00,meteohub,2013-01-18 02:42:00,
2013-01-17 21:47:00,36.1,27.0,30.13,North,11,13.0,17.0,69,0.00,,,0.00,meteohub,2013-01-18 02:47:00,
2013-01-17 21:52:00,36.1,27.0,30.12,NNE,22,11.0,17.0,69,0.00,,,0.00,meteohub,2013-01-18 02:52:00,
2013-01-17 21:57:00,35.6,26.4,30.10,NE,37,15.0,17.0,69,0.00,,,0.00,meteohub,2013-01-18 02:57:00,
2013-01-17 22:02:00,35.2,26.8,30.11,NNE,22,8.0,20.0,71,0.00,,,0.00,meteohub,2013-01-18 03:02:00,
2013-01-17 22:07:00,35.1,27.7,30.10,NNE,15,8.0,20.0,74,0.00,,,0.00,meteohub,2013-01-18 03:07:00,
2013-01-17 22:12:00,34.9,28.0,30.10,ENE,58,9.0,20.0,76,0.00,,,0.00,meteohub,2013-01-18 03:12:00,
2013-01-17 22:17:00,34.9,28.0,30.08,NNE,27,13.0,16.0,76,0.00,,,0.00,meteohub,2013-01-18 03:17:00,
2013-01-17 22:22:00,34.9,28.0,30.08,ENE,58,14.0,16.0,76,0.00,,,0.00,meteohub,2013-01-18 03:22:00,
2013-01-17 22:27:00,34.5,27.7,30.08,ENE,73,9.0,14.0,76,0.00,,,0.00,meteohub,2013-01-18 03:27:00,
2013-01-17 22:32:00,34.5,27.7,30.09,NE,54,14.0,15.0,76,0.00,,,0.00,meteohub,2013-01-18 03:32:00,
2013-01-17 22:37:00,34.5,27.1,30.07,ENE,58,10.0,15.0,74,0.00,,,0.00,meteohub,2013-01-18 03:37:00,
2013-01-17 22:42:00,34.5,27.5,30.05,NE,36,6.0,15.0,75,0.00,,,0.00,meteohub,2013-01-18 03:42:00,
2013-01-17 22:47:00,34.7,27.3,30.04,NE,45,10.0,16.0,74,0.00,,,0.00,meteohub,2013-01-18 03:47:00,
2013-01-17 22:52:00,34.5,26.1,30.06,NE,43,10.0,16.0,71,0.00,,,0.00,meteohub,2013-01-18 03:52:00,
2013-01-17 22:57:00,34.5,26.1,30.08,North,352,3.0,16.0,71,0.00,,,0.00,meteohub,2013-01-18 03:57:00,
2013-01-17 23:02:00,34.5,25.3,30.09,NNW,333,7.0,16.0,69,0.00,,,0.00,meteohub,2013-01-18 04:02:00,
2013-01-17 23:07:00,34.3,25.5,30.09,ENE,66,10.0,14.0,70,0.00,,,0.00,meteohub,2013-01-18 04:07:00,
2013-01-17 23:12:00,34.3,25.5,30.10,NNE,23,4.0,14.0,70,0.00,,,0.00,meteohub,2013-01-18 04:12:00,
2013-01-17 23:17:00,34.2,25.0,30.09,North,357,11.0,15.0,69,0.00,,,0.00,meteohub,2013-01-18 04:17:00,
2013-01-17 23:22:00,34.2,25.0,30.08,NE,34,7.0,15.0,69,0.00,,,0.00,meteohub,2013-01-18 04:22:00,
2013-01-17 23:27:00,34.2,24.6,30.09,ENE,58,7.0,14.0,68,0.00,,,0.00,meteohub,2013-01-18 04:27:00,
2013-01-17 23:32:00,34.2,24.6,30.08,North,351,7.0,15.0,68,0.00,,,0.00,meteohub,2013-01-18 04:32:00,
2013-01-17 23:37:00,34.2,24.6,30.09,North,3,11.0,18.0,68,0.00,,,0.00,meteohub,2013-01-18 04:37:00,
2013-01-17 23:42:00,34.0,24.8,30.09,North,9,11.0,18.0,69,0.00,,,0.00,meteohub,2013-01-18 04:42:00,
2013-01-17 23:47:00,34.0,23.9,30.09,North,1,13.0,18.0,66,0.00,,,0.00,meteohub,2013-01-18 04:47:00,
2013-01-17 23:52:00,34.0,23.9,30.07,NNE,32,16.0,18.0,66,0.00,,,0.00,meteohub,2013-01-18 04:52:00,
2013-01-17 23:57:00,34.0,24.6,30.06,NNE,13,16.0,18.0,68,0.00,,,0.00,meteohub,2013-01-18 04:57:00,